createdAt,value
2023-04-09T03:02:08.043Z,31.47
2023-04-09T03:04:35.344Z,34.77
2023-04-09T03:07:02.656Z,29.27
2023-04-09T03:09:30.768Z,32.53
2023-04-09T03:11:58.255Z,35.37
2023-04-09T03:14:39.439Z,34.43
2023-04-09T03:17:06.716Z,32.70
2023-04-09T03:19:35.139Z,33.97
2023-04-09T03:22:02.367Z,35.63
2023-04-09T03:24:29.572Z,41.07
2023-04-09T03:26:57.490Z,40.43
2023-04-09T03:29:24.816Z,37.83
2023-04-09T03:31:52.039Z,38.17
2023-04-09T03:34:19.228Z,39.73
2023-04-09T03:36:46.429Z,37.53
2023-04-09T03:39:13.614Z,40.17
2023-04-09T03:41:40.869Z,33.67
2023-04-09T03:44:08.041Z,40.60
2023-04-09T03:46:35.292Z,42.97
2023-04-09T03:49:02.612Z,38.90
2023-04-09T03:51:29.875Z,43.07
2023-04-09T03:53:57.133Z,43.63
2023-04-09T03:56:24.869Z,40.47
2023-04-09T03:58:52.184Z,40.60
2023-04-09T04:01:19.621Z,42.87
2023-04-09T04:03:46.939Z,38.83
2023-04-09T04:06:14.276Z,38.67
2023-04-09T04:08:41.531Z,37.80
2023-04-09T04:11:08.774Z,38.80
2023-04-09T04:13:36.012Z,40.10
2023-04-09T04:16:07.751Z,38.73
2023-04-09T04:18:35.917Z,41.00
2023-04-09T04:21:03.326Z,35.53
2023-04-09T04:23:30.730Z,44.93
2023-04-09T04:25:58.179Z,40.37
2023-04-09T04:28:25.522Z,44.67
2023-04-09T04:30:52.731Z,45.97
2023-04-09T04:33:20.006Z,43.07
2023-04-09T04:35:47.694Z,46.83
2023-04-09T04:38:14.952Z,44.23
2023-04-09T04:40:42.160Z,52.77
2023-04-09T04:43:09.373Z,44.33
2023-04-09T04:45:36.620Z,48.50
2023-04-09T04:48:03.953Z,39.90
2023-04-09T04:50:31.307Z,48.60
2023-04-09T04:52:58.518Z,38.57
2023-04-09T04:55:26.126Z,40.47
2023-04-09T04:57:53.472Z,47.07
2023-04-09T05:00:20.775Z,47.87
2023-04-09T05:02:48.256Z,44.67
2023-04-09T05:05:15.844Z,49.17
2023-04-09T05:07:43.051Z,47.43
2023-04-09T05:10:10.427Z,48.23
2023-04-09T05:12:37.711Z,43.33
2023-04-09T05:15:05.799Z,46.23
2023-04-09T05:17:33.177Z,35.37
2023-04-09T05:20:00.617Z,49.70
2023-04-09T05:22:27.857Z,40.70
2023-04-09T05:24:55.055Z,42.97
2023-04-09T05:27:24.232Z,61.83
2023-04-09T05:29:51.524Z,69.37
2023-04-09T05:32:18.814Z,65.93
2023-04-09T05:34:46.206Z,54.90
2023-04-09T05:37:13.822Z,46.37
2023-04-09T05:39:41.421Z,46.37
2023-04-09T05:42:08.754Z,52.47
2023-04-09T05:44:36.017Z,56.60
2023-04-09T05:47:03.443Z,56.17
2023-04-09T05:49:30.730Z,48.43
2023-04-09T05:51:58.072Z,51.47
2023-04-09T05:54:26.148Z,49.17
2023-04-09T05:56:53.408Z,47.80
2023-04-09T05:59:20.624Z,47.57
2023-04-09T06:01:47.884Z,51.43
2023-04-09T06:04:15.482Z,41.47
2023-04-09T06:06:42.747Z,41.17
2023-04-09T06:09:09.905Z,42.30
2023-04-09T06:11:37.118Z,44.07
2023-04-09T06:14:04.318Z,44.93
2023-04-09T06:16:32.952Z,43.40
2023-04-09T06:19:00.255Z,38.30
2023-04-09T06:21:27.574Z,37.30
2023-04-09T06:23:55.028Z,37.10
2023-04-09T06:26:22.710Z,35.73
2023-04-09T06:28:49.930Z,33.70
2023-04-09T06:31:17.171Z,38.37
2023-04-09T06:33:44.518Z,39.97
2023-04-09T06:36:11.731Z,37.50
2023-04-09T06:38:38.954Z,36.47
2023-04-09T06:41:08.466Z,41.00
2023-04-09T06:43:36.946Z,40.70
2023-04-09T06:46:04.241Z,38.60
2023-04-09T06:48:31.533Z,40.90
2023-04-09T06:50:58.797Z,40.87
2023-04-09T06:53:26.085Z,45.87
2023-04-09T06:55:54.464Z,46.43
2023-04-09T06:58:23.303Z,39.83
2023-04-09T07:00:50.734Z,39.33
2023-04-09T07:03:18.192Z,35.00
2023-04-09T07:05:45.921Z,29.43
2023-04-09T07:08:13.216Z,29.10
2023-04-09T07:10:40.991Z,37.57
2023-04-09T07:13:08.282Z,34.93
2023-04-09T07:15:35.614Z,31.20
2023-04-09T07:18:03.156Z,34.47
2023-04-09T07:20:31.111Z,62.70
2023-04-09T07:22:58.342Z,37.53
2023-04-09T07:25:25.591Z,35.87
2023-04-09T07:27:52.876Z,34.23
2023-04-09T07:30:20.283Z,37.97
2023-04-09T07:32:47.575Z,33.10
2023-04-09T07:35:14.861Z,34.40
2023-04-09T07:37:42.233Z,31.70
2023-04-09T07:40:09.658Z,25.70
2023-04-09T07:42:40.600Z,18.43
2023-04-09T07:45:08.408Z,20.17
2023-04-09T07:47:35.719Z,19.00
2023-04-09T07:50:03.032Z,18.63
2023-04-09T07:52:30.283Z,18.50
2023-04-09T07:54:57.941Z,20.20
2023-04-09T07:57:25.207Z,18.27
2023-04-09T07:59:53.623Z,21.90
2023-04-09T08:02:21.337Z,17.77
2023-04-09T08:04:48.840Z,20.57
2023-04-09T08:07:16.254Z,19.27
2023-04-09T08:09:43.485Z,20.67
2023-04-09T08:12:11.124Z,19.50
2023-04-09T08:14:38.372Z,21.40
2023-04-09T08:17:05.802Z,17.75
2023-04-09T08:19:33.062Z,17.05
2023-04-09T08:22:01.546Z,15.88
2023-04-09T08:24:28.877Z,16.35
2023-04-09T08:26:57.720Z,16.40
2023-04-09T08:29:24.997Z,15.60
2023-04-09T08:31:52.280Z,14.95
2023-04-09T08:34:21.146Z,15.52
2023-04-09T08:36:49.901Z,13.32
2023-04-09T08:39:20.129Z,13.55
2023-04-09T08:41:50.545Z,13.27
2023-04-09T08:44:18.142Z,15.60
2023-04-09T08:46:45.363Z,14.57
2023-04-09T08:49:12.962Z,19.25
2023-04-09T08:51:46.303Z,10.93
2023-04-09T08:54:17.239Z,10.80
2023-04-09T08:56:44.582Z,9.68
2023-04-09T08:59:14.878Z,11.43
2023-04-09T09:01:42.151Z,11.60
2023-04-09T09:04:10.621Z,11.23
2023-04-09T09:06:39.950Z,11.75
2023-04-09T09:09:10.231Z,11.52
2023-04-09T09:11:42.504Z,11.68
2023-04-09T09:14:11.904Z,12.35
2023-04-09T09:16:43.207Z,12.60
2023-04-09T09:19:26.015Z,11.63
2023-04-09T09:21:57.565Z,12.57
2023-04-09T09:24:24.871Z,12.85
2023-04-09T09:26:52.836Z,11.63
2023-04-09T09:29:20.540Z,17.02
2023-04-09T09:31:55.868Z,8.82
2023-04-09T09:34:24.485Z,10.77
2023-04-09T09:36:51.755Z,11.07
2023-04-09T09:39:19.136Z,9.35
2023-04-09T09:41:47.372Z,12.38
2023-04-09T09:44:32.242Z,10.13
2023-04-09T09:47:00.692Z,11.07
2023-04-09T09:49:27.898Z,10.40
2023-04-09T09:51:59.654Z,8.48
2023-04-09T09:54:32.457Z,11.30
2023-04-09T09:57:04.625Z,10.65
2023-04-09T09:59:37.602Z,11.38
2023-04-09T10:02:07.613Z,10.83
2023-04-09T10:04:38.305Z,10.55
2023-04-09T10:07:07.442Z,9.20
2023-04-09T10:09:37.730Z,11.40
2023-04-09T10:12:07.473Z,10.50
2023-04-09T10:14:36.068Z,12.73
2023-04-09T10:17:04.391Z,9.67
2023-04-09T10:19:35.768Z,9.55
2023-04-09T10:22:11.357Z,8.10
2023-04-09T10:24:38.891Z,12.18
2023-04-09T10:27:15.666Z,7.50
2023-04-09T10:29:48.743Z,10.97
2023-04-09T10:32:26.604Z,8.55
2023-04-09T10:34:58.807Z,8.50
2023-04-09T10:37:27.124Z,8.25
2023-04-09T10:39:54.718Z,8.02
2023-04-09T10:42:35.259Z,8.10
2023-04-09T10:45:11.175Z,7.63
2023-04-09T10:47:40.681Z,7.05
2023-04-09T10:50:24.523Z,7.88
2023-04-09T10:53:00.690Z,6.95
2023-04-09T10:55:38.253Z,6.10
2023-04-09T10:58:13.130Z,7.15
2023-04-09T11:00:43.378Z,11.27
2023-04-09T11:03:21.816Z,7.88
2023-04-09T11:05:53.954Z,5.97
2023-04-09T11:08:22.201Z,5.85
2023-04-09T11:10:52.042Z,7.03
2023-04-09T11:13:21.211Z,6.65
2023-04-09T11:15:48.495Z,7.47
2023-04-09T11:18:22.463Z,7.90
2023-04-09T11:20:49.981Z,6.57
2023-04-09T11:23:18.049Z,7.90
2023-04-09T11:25:49.877Z,7.90
2023-04-09T11:28:17.747Z,9.73
2023-04-09T11:30:46.901Z,10.38
2023-04-09T11:33:15.184Z,6.95
2023-04-09T11:35:44.052Z,5.85
2023-04-09T11:38:12.089Z,5.55
2023-04-09T11:40:49.824Z,8.80
2023-04-09T11:43:18.091Z,7.10
2023-04-09T11:45:48.594Z,5.22
2023-04-09T11:48:21.806Z,5.90
2023-04-09T11:50:49.720Z,5.68
2023-04-09T11:53:21.278Z,5.68
2023-04-09T11:55:51.676Z,6.25
2023-04-09T11:58:22.156Z,5.47
2023-04-09T12:00:52.368Z,7.05
2023-04-09T12:03:26.080Z,6.43
2023-04-09T12:05:53.475Z,5.95
2023-04-09T12:08:24.417Z,4.90
2023-04-09T12:10:53.895Z,5.10
2023-04-09T12:13:21.705Z,5.38
2023-04-09T12:15:50.174Z,6.03
2023-04-09T12:18:17.736Z,5.40
2023-04-09T12:20:47.486Z,7.68
2023-04-09T12:23:15.707Z,5.53
2023-04-09T12:25:45.228Z,5.50
2023-04-09T12:28:15.826Z,5.93
2023-04-09T12:30:43.674Z,8.00
2023-04-09T12:33:11.497Z,5.35
2023-04-09T12:35:39.185Z,5.53
2023-04-09T12:38:06.511Z,6.00
2023-04-09T12:40:34.900Z,7.82
2023-04-09T12:43:02.481Z,6.35
2023-04-09T12:45:30.387Z,7.78
2023-04-09T12:47:58.210Z,6.40
2023-04-09T12:50:25.636Z,6.85
2023-04-09T12:52:52.895Z,6.03
2023-04-09T12:55:20.193Z,5.80
2023-04-09T12:57:50.499Z,6.07
2023-04-09T13:00:17.702Z,6.82
2023-04-09T13:02:45.081Z,6.38
2023-04-09T13:05:12.483Z,7.18
2023-04-09T13:07:41.517Z,6.38
2023-04-09T13:10:10.485Z,6.20
2023-04-09T13:12:37.826Z,6.75
2023-04-09T13:15:05.776Z,6.82
2023-04-09T13:17:33.029Z,6.70
2023-04-09T13:20:00.281Z,6.60
2023-04-09T13:22:27.459Z,7.65
2023-04-09T13:24:54.706Z,8.05
2023-04-09T13:27:22.079Z,6.93
2023-04-09T13:29:49.320Z,7.40
2023-04-09T13:32:18.192Z,7.35
2023-04-09T13:34:46.077Z,13.48
2023-04-09T13:37:13.421Z,9.32
2023-04-09T13:39:40.788Z,7.85
2023-04-09T13:42:13.633Z,8.43
2023-04-09T13:44:44.642Z,8.35
2023-04-09T13:47:13.459Z,9.35
2023-04-09T13:49:41.487Z,9.52
2023-04-09T13:52:09.480Z,9.52
2023-04-09T13:54:37.105Z,8.00
2023-04-09T13:57:04.342Z,5.45
2023-04-09T13:59:31.581Z,7.07
2023-04-09T14:01:58.881Z,7.82
2023-04-09T14:04:26.256Z,7.07
2023-04-09T14:06:53.590Z,8.57
2023-04-09T14:09:21.087Z,8.00
2023-04-09T14:11:49.366Z,8.38
2023-04-09T14:14:16.830Z,8.18
2023-04-09T14:16:44.076Z,9.15
2023-04-09T14:19:11.380Z,8.25
2023-04-09T14:21:39.760Z,7.65
2023-04-09T14:24:07.636Z,8.05
2023-04-09T14:26:34.921Z,9.65
2023-04-09T14:29:02.237Z,12.02
2023-04-09T14:31:29.640Z,8.85
2023-04-09T14:33:57.044Z,12.23
2023-04-09T14:36:24.854Z,11.23
2023-04-09T14:38:53.278Z,9.10
2023-04-09T14:41:21.998Z,9.85
2023-04-09T14:43:49.252Z,9.05
2023-04-09T14:46:16.469Z,9.00
2023-04-09T14:48:43.691Z,8.20
2023-04-09T14:51:11.267Z,7.63
2023-04-09T14:53:38.913Z,9.05
2023-04-09T14:56:06.618Z,8.85
2023-04-09T14:58:33.930Z,13.07
2023-04-09T15:01:01.231Z,13.32
2023-04-09T15:03:28.614Z,10.02
2023-04-09T15:05:56.809Z,14.32
2023-04-09T15:08:24.053Z,14.68
2023-04-09T15:10:51.519Z,15.50
2023-04-09T15:13:18.755Z,13.23
2023-04-09T15:15:46.375Z,13.57
2023-04-09T15:18:13.708Z,10.82
2023-04-09T15:20:43.256Z,10.40
2023-04-09T15:23:11.053Z,13.40
2023-04-09T15:25:38.932Z,12.07
2023-04-09T15:28:06.797Z,10.40
2023-04-09T15:30:35.513Z,10.85
2023-04-09T15:33:02.961Z,12.55
2023-04-09T15:35:30.371Z,9.45
2023-04-09T15:37:57.846Z,9.82
2023-04-09T15:40:25.420Z,11.05
2023-04-09T15:42:52.635Z,9.15
2023-04-09T15:45:19.973Z,13.18
2023-04-09T15:47:47.466Z,10.20
2023-04-09T15:50:14.912Z,13.55
2023-04-09T15:52:42.305Z,10.23
2023-04-09T15:55:10.016Z,15.88
2023-04-09T15:57:38.554Z,12.10
2023-04-09T16:00:10.229Z,11.05
2023-04-09T16:02:38.919Z,16.52
2023-04-09T16:05:07.220Z,15.52
2023-04-09T16:07:35.209Z,14.60
2023-04-09T16:10:04.618Z,15.32
2023-04-09T16:12:33.581Z,19.65
2023-04-09T16:15:00.892Z,12.02
2023-04-09T16:17:28.338Z,12.57
2023-04-09T16:19:56.391Z,12.60
2023-04-09T16:22:23.750Z,10.13
2023-04-09T16:24:50.980Z,9.65
2023-04-09T16:27:18.462Z,12.18
2023-04-09T16:29:46.229Z,10.77
2023-04-09T16:32:13.744Z,12.10
2023-04-09T16:34:41.203Z,13.82
2023-04-09T16:37:08.643Z,16.25
2023-04-09T16:39:35.951Z,12.43
2023-04-09T16:42:03.313Z,11.35
2023-04-09T16:44:30.791Z,10.18
2023-04-09T16:46:58.049Z,12.60
2023-04-09T16:49:25.336Z,12.40
2023-04-09T16:51:53.251Z,11.20
2023-04-09T16:54:20.826Z,11.57
2023-04-09T16:56:48.800Z,10.75
2023-04-09T16:59:18.453Z,14.27
2023-04-09T17:01:46.027Z,14.07
2023-04-09T17:04:13.704Z,15.07
2023-04-09T17:06:41.133Z,17.88
2023-04-09T17:09:08.495Z,14.23
2023-04-09T17:11:37.980Z,12.10
2023-04-09T17:14:05.829Z,14.27
2023-04-09T17:16:33.501Z,15.65
2023-04-09T17:19:00.919Z,15.55
2023-04-09T17:21:28.114Z,19.57
2023-04-09T17:23:55.380Z,22.80
2023-04-09T17:26:22.559Z,21.73
2023-04-09T17:28:49.755Z,23.70
2023-04-09T17:31:17.780Z,15.33
2023-04-09T17:33:48.723Z,11.85
2023-04-09T17:36:19.972Z,14.27
2023-04-09T17:38:47.852Z,10.45
2023-04-09T17:41:15.656Z,14.70
2023-04-09T17:43:42.955Z,13.90
2023-04-09T17:46:11.499Z,13.70
2023-04-09T17:48:39.043Z,12.75
2023-04-09T17:51:06.892Z,12.20
2023-04-09T17:53:34.131Z,14.40
2023-04-09T17:56:03.881Z,13.93
2023-04-09T17:58:31.092Z,15.03
2023-04-09T18:00:59.562Z,13.50
2023-04-09T18:03:27.110Z,14.90
2023-04-09T18:05:54.750Z,12.00
2023-04-09T18:08:22.241Z,13.67
2023-04-09T18:11:04.973Z,19.60
2023-04-09T18:13:36.434Z,22.60
2023-04-09T18:16:03.865Z,19.40
2023-04-09T18:18:31.156Z,18.20
2023-04-09T18:20:58.320Z,23.47
2023-04-09T18:23:27.070Z,17.17
2023-04-09T18:25:54.265Z,20.70
2023-04-09T18:28:21.799Z,17.73
2023-04-09T18:30:49.291Z,22.17
2023-04-09T18:33:16.573Z,17.00
2023-04-09T18:35:43.834Z,17.60
2023-04-09T18:38:11.270Z,15.83
2023-04-09T18:40:43.123Z,26.83
2023-04-09T18:43:12.427Z,19.93
2023-04-09T18:45:39.810Z,17.07
2023-04-09T18:48:08.640Z,21.30
2023-04-09T18:50:36.174Z,20.60
2023-04-09T18:53:05.553Z,19.17
2023-04-09T18:55:35.863Z,19.70
2023-04-09T18:58:05.281Z,19.10
2023-04-09T19:00:32.499Z,28.13
2023-04-09T19:03:00.072Z,20.93
2023-04-09T19:05:29.719Z,20.20
2023-04-09T19:08:05.276Z,13.73
2023-04-09T19:10:32.929Z,26.30
2023-04-09T19:13:00.317Z,10.87
2023-04-09T19:15:29.341Z,16.77
2023-04-09T19:17:57.460Z,16.63
2023-04-09T19:20:24.890Z,21.70
2023-04-09T19:22:57.398Z,15.50
2023-04-09T19:25:24.761Z,16.57
2023-04-09T19:27:54.198Z,18.03
2023-04-09T19:30:21.633Z,26.90
2023-04-09T19:32:48.926Z,14.03
2023-04-09T19:35:16.885Z,25.83
2023-04-09T19:37:44.926Z,22.60
2023-04-09T19:40:15.473Z,23.03
2023-04-09T19:42:42.800Z,25.80
2023-04-09T19:45:10.550Z,20.50
2023-04-09T19:47:37.798Z,22.30
2023-04-09T19:50:05.511Z,23.90
2023-04-09T19:52:33.139Z,18.60
2023-04-09T19:55:01.818Z,22.17
2023-04-09T19:57:31.634Z,19.17
2023-04-09T19:59:58.932Z,19.73
2023-04-09T20:02:26.346Z,23.97
2023-04-09T20:04:54.521Z,17.43
2023-04-09T20:07:21.875Z,19.17
2023-04-09T20:09:49.687Z,23.00
2023-04-09T20:12:17.043Z,15.43
2023-04-09T20:14:44.573Z,22.00
2023-04-09T20:17:12.100Z,17.73
2023-04-09T20:19:39.302Z,18.33
2023-04-09T20:22:06.580Z,18.00
2023-04-09T20:24:35.360Z,17.63
2023-04-09T20:27:03.792Z,16.43
2023-04-09T20:29:31.082Z,15.87
2023-04-09T20:31:58.438Z,17.77
2023-04-09T20:34:28.856Z,17.80
2023-04-09T20:36:56.647Z,17.10
2023-04-09T20:39:26.677Z,14.10
2023-04-09T20:41:55.045Z,13.57
2023-04-09T20:44:22.748Z,28.57
2023-04-09T20:46:51.046Z,25.10
2023-04-09T20:49:18.385Z,25.67
2023-04-09T20:51:46.332Z,26.90
2023-04-09T20:54:13.795Z,17.10
2023-04-09T20:56:41.550Z,18.33
2023-04-09T20:59:08.860Z,22.27
